sensor_id;sensor_type;location;lat;lon;timestamp;pressure;altitude;pressure_sealevel;temperature
70831;BMP180;58451;51.550;7.208;2023-02-21T00:01:42;101238.60;;;7.80
70831;BMP180;58451;51.550;7.208;2023-02-21T00:03:33;101244.80;;;7.80
70831;BMP180;58451;51.550;7.208;2023-02-21T00:05:23;101245.40;;;7.80
70831;BMP180;58451;51.550;7.208;2023-02-21T00:07:14;101246.00;;;7.80
70831;BMP180;58451;51.550;7.208;2023-02-21T00:09:05;101242.80;;;7.80
70831;BMP180;58451;51.550;7.208;2023-02-21T00:10:55;101249.20;;;7.80
70831;BMP180;58451;51.550;7.208;2023-02-21T00:12:46;101253.20;;;7.80
70831;BMP180;58451;51.550;7.208;2023-02-21T00:14:37;101251.80;;;7.80
70831;BMP180;58451;51.550;7.208;2023-02-21T00:16:28;101249.20;;;7.80
70831;BMP180;58451;51.550;7.208;2023-02-21T00:18:19;101253.20;;;7.80
70831;BMP180;58451;51.550;7.208;2023-02-21T00:20:09;101255.60;;;7.80
70831;BMP180;58451;51.550;7.208;2023-02-21T00:22:00;101253.20;;;7.80
70831;BMP180;58451;51.550;7.208;2023-02-21T00:23:51;101250.40;;;7.80
70831;BMP180;58451;51.550;7.208;2023-02-21T00:25:42;101251.80;;;7.80
70831;BMP180;58451;51.550;7.208;2023-02-21T00:27:33;101250.40;;;7.80
70831;BMP180;58451;51.550;7.208;2023-02-21T00:29:24;101249.20;;;7.80
70831;BMP180;58451;51.550;7.208;2023-02-21T00:31:18;101247.40;;;7.80
70831;BMP180;58451;51.550;7.208;2023-02-21T00:33:09;101246.80;;;7.80
70831;BMP180;58451;51.550;7.208;2023-02-21T00:34:59;101242.20;;;7.74
70831;BMP180;58451;51.550;7.208;2023-02-21T00:36:53;101242.80;;;7.80
70831;BMP180;58451;51.550;7.208;2023-02-21T00:38:43;101241.00;;;7.80
70831;BMP180;58451;51.550;7.208;2023-02-21T00:40:34;101249.80;;;7.70
70831;BMP180;58451;51.550;7.208;2023-02-21T00:42:25;101249.80;;;7.72
70831;BMP180;58451;51.550;7.208;2023-02-21T00:44:15;101252.60;;;7.74
70831;BMP180;58451;51.550;7.208;2023-02-21T00:46:07;101251.60;;;7.76
70831;BMP180;58451;51.550;7.208;2023-02-21T00:47:58;101250.20;;;7.70
70831;BMP180;58451;51.550;7.208;2023-02-21T00:49:49;101255.80;;;7.70
70831;BMP180;58451;51.550;7.208;2023-02-21T00:51:39;101253.20;;;7.72
70831;BMP180;58451;51.550;7.208;2023-02-21T00:53:31;101252.00;;;7.70
70831;BMP180;58451;51.550;7.208;2023-02-21T00:55:24;101248.80;;;7.70
70831;BMP180;58451;51.550;7.208;2023-02-21T00:57:14;101247.40;;;7.70
70831;BMP180;58451;51.550;7.208;2023-02-21T00:59:05;101243.60;;;7.70
70831;BMP180;58451;51.550;7.208;2023-02-21T01:00:57;101236.80;;;7.70
70831;BMP180;58451;51.550;7.208;2023-02-21T01:02:48;101235.60;;;7.70
70831;BMP180;58451;51.550;7.208;2023-02-21T01:04:38;101232.80;;;7.70
70831;BMP180;58451;51.550;7.208;2023-02-21T01:06:29;101226.80;;;7.70
70831;BMP180;58451;51.550;7.208;2023-02-21T01:08:20;101233.40;;;7.70
70831;BMP180;58451;51.550;7.208;2023-02-21T01:10:10;101233.00;;;7.70
70831;BMP180;58451;51.550;7.208;2023-02-21T01:12:01;101223.60;;;7.70
70831;BMP180;58451;51.550;7.208;2023-02-21T01:13:51;101232.40;;;7.70
70831;BMP180;58451;51.550;7.208;2023-02-21T01:15:43;101227.00;;;7.70
70831;BMP180;58451;51.550;7.208;2023-02-21T01:17:34;101222.60;;;7.70
70831;BMP180;58451;51.550;7.208;2023-02-21T01:19:26;101220.20;;;7.70
70831;BMP180;58451;51.550;7.208;2023-02-21T01:21:18;101222.00;;;7.70
70831;BMP180;58451;51.550;7.208;2023-02-21T01:23:08;101216.00;;;7.70
70831;BMP180;58451;51.550;7.208;2023-02-21T01:24:59;101212.20;;;7.70
70831;BMP180;58451;51.550;7.208;2023-02-21T01:26:50;101212.00;;;7.70
70831;BMP180;58451;51.550;7.208;2023-02-21T01:28:41;101209.20;;;7.70
70831;BMP180;58451;51.550;7.208;2023-02-21T01:30:32;101210.60;;;7.70
70831;BMP180;58451;51.550;7.208;2023-02-21T01:32:23;101210.00;;;7.70
70831;BMP180;58451;51.550;7.208;2023-02-21T01:34:13;101209.60;;;7.70
70831;BMP180;58451;51.550;7.208;2023-02-21T01:36:07;101210.20;;;7.68
70831;BMP180;58451;51.550;7.208;2023-02-21T01:37:58;101207.20;;;7.68
70831;BMP180;58451;51.550;7.208;2023-02-21T01:39:49;101207.20;;;7.64
70831;BMP180;58451;51.550;7.208;2023-02-21T01:41:40;101206.00;;;7.60
70831;BMP180;58451;51.550;7.208;2023-02-21T01:43:31;101208.00;;;7.60
70831;BMP180;58451;51.550;7.208;2023-02-21T01:47:13;101208.60;;;7.64
70831;BMP180;58451;51.550;7.208;2023-02-21T01:49:10;101210.60;;;7.66
70831;BMP180;58451;51.550;7.208;2023-02-21T01:51:03;101210.20;;;7.64
70831;BMP180;58451;51.550;7.208;2023-02-21T01:52:55;101211.40;;;7.68
70831;BMP180;58451;51.550;7.208;2023-02-21T01:54:51;101211.00;;;7.64
70831;BMP180;58451;51.550;7.208;2023-02-21T01:56:43;101207.60;;;7.64
70831;BMP180;58451;51.550;7.208;2023-02-21T01:58:34;101204.40;;;7.68
70831;BMP180;58451;51.550;7.208;2023-02-21T02:00:25;101207.40;;;7.68
70831;BMP180;58451;51.550;7.208;2023-02-21T02:02:32;101206.20;;;7.68
70831;BMP180;58451;51.550;7.208;2023-02-21T02:04:25;101202.80;;;7.66
70831;BMP180;58451;51.550;7.208;2023-02-21T02:06:17;101207.20;;;7.60
70831;BMP180;58451;51.550;7.208;2023-02-21T02:08:11;101209.40;;;7.60
70831;BMP180;58451;51.550;7.208;2023-02-21T02:10:07;101208.40;;;7.60
70831;BMP180;58451;51.550;7.208;2023-02-21T02:34:25;101201.80;;;7.60
70831;BMP180;58451;51.550;7.208;2023-02-21T02:36:17;101198.60;;;7.60
70831;BMP180;58451;51.550;7.208;2023-02-21T02:38:06;101200.60;;;7.60
70831;BMP180;58451;51.550;7.208;2023-02-21T02:40:27;101194.40;;;7.60
70831;BMP180;58451;51.550;7.208;2023-02-21T02:42:10;101189.40;;;7.60
70831;BMP180;58451;51.550;7.208;2023-02-21T02:44:24;101190.00;;;7.60
70831;BMP180;58451;51.550;7.208;2023-02-21T02:46:12;101188.20;;;7.60
70831;BMP180;58451;51.550;7.208;2023-02-21T02:47:54;101185.00;;;7.54
70831;BMP180;58451;51.550;7.208;2023-02-21T02:49:32;101192.00;;;7.56
70831;BMP180;58451;51.550;7.208;2023-02-21T02:51:12;101195.20;;;7.56
70831;BMP180;58451;51.550;7.208;2023-02-21T02:52:53;101189.60;;;7.50
70831;BMP180;58451;51.550;7.208;2023-02-21T02:54:26;101190.60;;;7.52
70831;BMP180;58451;51.550;7.208;2023-02-21T02:56:02;101194.20;;;7.54
70831;BMP180;58451;51.550;7.208;2023-02-21T02:57:36;101194.80;;;7.50
70831;BMP180;58451;51.550;7.208;2023-02-21T02:59:20;101193.20;;;7.50
70831;BMP180;58451;51.550;7.208;2023-02-21T03:09:01;101192.40;;;7.58
70831;BMP180;58451;51.550;7.208;2023-02-21T03:11:01;101193.60;;;7.56
70831;BMP180;58451;51.550;7.208;2023-02-21T03:13:19;101185.80;;;7.50
70831;BMP180;58451;51.550;7.208;2023-02-21T03:15:25;101195.20;;;7.50
70831;BMP180;58451;51.550;7.208;2023-02-21T03:17:05;101194.40;;;7.54
70831;BMP180;58451;51.550;7.208;2023-02-21T03:18:53;101195.60;;;7.50
70831;BMP180;58451;51.550;7.208;2023-02-21T03:20:28;101197.40;;;7.50
70831;BMP180;58451;51.550;7.208;2023-02-21T03:22:22;101196.00;;;7.50
70831;BMP180;58451;51.550;7.208;2023-02-21T03:24:00;101202.40;;;7.50
70831;BMP180;58451;51.550;7.208;2023-02-21T03:25:33;101206.20;;;7.54
70831;BMP180;58451;51.550;7.208;2023-02-21T03:27:08;101201.60;;;7.50
70831;BMP180;58451;51.550;7.208;2023-02-21T03:29:03;101201.80;;;7.56
70831;BMP180;58451;51.550;7.208;2023-02-21T03:30:36;101198.20;;;7.54
70831;BMP180;58451;51.550;7.208;2023-02-21T03:33:55;101201.40;;;7.60
70831;BMP180;58451;51.550;7.208;2023-02-21T03:35:29;101197.00;;;7.60
70831;BMP180;58451;51.550;7.208;2023-02-21T03:37:02;101197.00;;;7.60
70831;BMP180;58451;51.550;7.208;2023-02-21T03:38:34;101196.00;;;7.60
70831;BMP180;58451;51.550;7.208;2023-02-21T03:40:13;101194.20;;;7.60
70831;BMP180;58451;51.550;7.208;2023-02-21T03:41:49;101191.60;;;7.60
70831;BMP180;58451;51.550;7.208;2023-02-21T03:43:21;101193.80;;;7.60
70831;BMP180;58451;51.550;7.208;2023-02-21T03:44:58;101195.40;;;7.60
70831;BMP180;58451;51.550;7.208;2023-02-21T03:46:31;101194.00;;;7.60
70831;BMP180;58451;51.550;7.208;2023-02-21T03:48:03;101192.60;;;7.60
70831;BMP180;58451;51.550;7.208;2023-02-21T03:49:36;101188.20;;;7.60
70831;BMP180;58451;51.550;7.208;2023-02-21T03:51:08;101188.60;;;7.60
70831;BMP180;58451;51.550;7.208;2023-02-21T03:52:40;101186.80;;;7.60
70831;BMP180;58451;51.550;7.208;2023-02-21T03:54:13;101188.20;;;7.60
70831;BMP180;58451;51.550;7.208;2023-02-21T03:55:46;101188.20;;;7.60
70831;BMP180;58451;51.550;7.208;2023-02-21T03:57:23;101190.40;;;7.60
70831;BMP180;58451;51.550;7.208;2023-02-21T03:58:56;101182.20;;;7.60
70831;BMP180;58451;51.550;7.208;2023-02-21T04:00:28;101185.80;;;7.58
70831;BMP180;58451;51.550;7.208;2023-02-21T04:02:01;101185.40;;;7.56
70831;BMP180;58451;51.550;7.208;2023-02-21T04:03:36;101183.60;;;7.58
70831;BMP180;58451;51.550;7.208;2023-02-21T04:05:08;101183.60;;;7.60
70831;BMP180;58451;51.550;7.208;2023-02-21T04:06:40;101186.00;;;7.58
70831;BMP180;58451;51.550;7.208;2023-02-21T04:08:15;101183.80;;;7.60
70831;BMP180;58451;51.550;7.208;2023-02-21T04:09:48;101185.80;;;7.60
70831;BMP180;58451;51.550;7.208;2023-02-21T04:11:27;101188.00;;;7.60
70831;BMP180;58451;51.550;7.208;2023-02-21T04:12:58;101191.00;;;7.58
70831;BMP180;58451;51.550;7.208;2023-02-21T04:14:32;101194.40;;;7.52
70831;BMP180;58451;51.550;7.208;2023-02-21T04:16:04;101194.20;;;7.54
70831;BMP180;58451;51.550;7.208;2023-02-21T04:17:38;101197.80;;;7.52
70831;BMP180;58451;51.550;7.208;2023-02-21T04:19:11;101199.00;;;7.50
70831;BMP180;58451;51.550;7.208;2023-02-21T04:20:44;101198.20;;;7.52
70831;BMP180;58451;51.550;7.208;2023-02-21T04:22:21;101193.60;;;7.50
70831;BMP180;58451;51.550;7.208;2023-02-21T04:23:53;101192.40;;;7.50
70831;BMP180;58451;51.550;7.208;2023-02-21T04:25:26;101194.00;;;7.50
70831;BMP180;58451;51.550;7.208;2023-02-21T04:27:03;101193.60;;;7.50
70831;BMP180;58451;51.550;7.208;2023-02-21T04:28:38;101193.60;;;7.50
70831;BMP180;58451;51.550;7.208;2023-02-21T04:30:11;101186.40;;;7.50
70831;BMP180;58451;51.550;7.208;2023-02-21T04:31:43;101187.20;;;7.50
70831;BMP180;58451;51.550;7.208;2023-02-21T04:33:19;101189.20;;;7.50
70831;BMP180;58451;51.550;7.208;2023-02-21T04:34:51;101183.40;;;7.50
70831;BMP180;58451;51.550;7.208;2023-02-21T04:36:23;101182.40;;;7.42
70831;BMP180;58451;51.550;7.208;2023-02-21T04:37:55;101184.20;;;7.46
70831;BMP180;58451;51.550;7.208;2023-02-21T04:39:28;101187.00;;;7.50
70831;BMP180;58451;51.550;7.208;2023-02-21T04:41:00;101189.80;;;7.44
70831;BMP180;58451;51.550;7.208;2023-02-21T04:42:32;101184.40;;;7.42
70831;BMP180;58451;51.550;7.208;2023-02-21T04:44:05;101187.00;;;7.40
70831;BMP180;58451;51.550;7.208;2023-02-21T04:45:37;101188.20;;;7.40
70831;BMP180;58451;51.550;7.208;2023-02-21T04:47:09;101189.20;;;7.40
70831;BMP180;58451;51.550;7.208;2023-02-21T04:48:44;101185.80;;;7.40
70831;BMP180;58451;51.550;7.208;2023-02-21T04:50:16;101182.40;;;7.40
70831;BMP180;58451;51.550;7.208;2023-02-21T04:51:48;101177.60;;;7.38
70831;BMP180;58451;51.550;7.208;2023-02-21T04:53:20;101177.80;;;7.40
70831;BMP180;58451;51.550;7.208;2023-02-21T04:54:52;101172.60;;;7.36
70831;BMP180;58451;51.550;7.208;2023-02-21T04:56:25;101174.00;;;7.30
70831;BMP180;58451;51.550;7.208;2023-02-21T04:57:58;101172.40;;;7.30
70831;BMP180;58451;51.550;7.208;2023-02-21T04:59:30;101168.40;;;7.30
70831;BMP180;58451;51.550;7.208;2023-02-21T05:01:02;101169.00;;;7.30
70831;BMP180;58451;51.550;7.208;2023-02-21T05:02:34;101171.20;;;7.30
70831;BMP180;58451;51.550;7.208;2023-02-21T05:04:05;101173.20;;;7.30
70831;BMP180;58451;51.550;7.208;2023-02-21T05:05:40;101172.20;;;7.30
70831;BMP180;58451;51.550;7.208;2023-02-21T05:07:12;101169.60;;;7.30
70831;BMP180;58451;51.550;7.208;2023-02-21T05:08:44;101173.80;;;7.30
70831;BMP180;58451;51.550;7.208;2023-02-21T05:10:17;101174.20;;;7.30
70831;BMP180;58451;51.550;7.208;2023-02-21T05:11:49;101176.60;;;7.30
70831;BMP180;58451;51.550;7.208;2023-02-21T05:13:21;101177.00;;;7.30
70831;BMP180;58451;51.550;7.208;2023-02-21T05:14:53;101174.00;;;7.30
70831;BMP180;58451;51.550;7.208;2023-02-21T05:16:25;101175.80;;;7.30
70831;BMP180;58451;51.550;7.208;2023-02-21T05:17:57;101178.20;;;7.30
70831;BMP180;58451;51.550;7.208;2023-02-21T05:19:29;101179.80;;;7.30
70831;BMP180;58451;51.550;7.208;2023-02-21T05:21:01;101176.00;;;7.26
70831;BMP180;58451;51.550;7.208;2023-02-21T05:22:34;101176.20;;;7.20
70831;BMP180;58451;51.550;7.208;2023-02-21T05:24:09;101178.60;;;7.20
70831;BMP180;58451;51.550;7.208;2023-02-21T05:25:42;101183.60;;;7.20
70831;BMP180;58451;51.550;7.208;2023-02-21T05:27:17;101184.60;;;7.20
70831;BMP180;58451;51.550;7.208;2023-02-21T05:28:49;101186.00;;;7.20
70831;BMP180;58451;51.550;7.208;2023-02-21T05:30:22;101189.40;;;7.20
70831;BMP180;58451;51.550;7.208;2023-02-21T05:31:54;101191.80;;;7.20
70831;BMP180;58451;51.550;7.208;2023-02-21T05:33:27;101191.40;;;7.20
70831;BMP180;58451;51.550;7.208;2023-02-21T05:34:59;101192.00;;;7.20
70831;BMP180;58451;51.550;7.208;2023-02-21T05:36:31;101190.80;;;7.20
70831;BMP180;58451;51.550;7.208;2023-02-21T05:38:03;101188.60;;;7.20
70831;BMP180;58451;51.550;7.208;2023-02-21T05:39:35;101188.40;;;7.20
70831;BMP180;58451;51.550;7.208;2023-02-21T05:41:07;101192.20;;;7.20
70831;BMP180;58451;51.550;7.208;2023-02-21T05:42:41;101191.80;;;7.20
70831;BMP180;58451;51.550;7.208;2023-02-21T05:44:14;101189.40;;;7.20
70831;BMP180;58451;51.550;7.208;2023-02-21T05:45:46;101188.60;;;7.20
70831;BMP180;58451;51.550;7.208;2023-02-21T05:47:18;101188.20;;;7.20
70831;BMP180;58451;51.550;7.208;2023-02-21T05:48:50;101193.40;;;7.20
70831;BMP180;58451;51.550;7.208;2023-02-21T05:50:23;101193.80;;;7.20
70831;BMP180;58451;51.550;7.208;2023-02-21T05:51:56;101194.40;;;7.20
70831;BMP180;58451;51.550;7.208;2023-02-21T05:53:28;101192.80;;;7.20
70831;BMP180;58451;51.550;7.208;2023-02-21T05:55:01;101186.80;;;7.20
70831;BMP180;58451;51.550;7.208;2023-02-21T05:56:39;101190.40;;;7.20
70831;BMP180;58451;51.550;7.208;2023-02-21T05:58:11;101190.20;;;7.20
70831;BMP180;58451;51.550;7.208;2023-02-21T05:59:43;101186.20;;;7.20
70831;BMP180;58451;51.550;7.208;2023-02-21T06:01:15;101185.40;;;7.20
70831;BMP180;58451;51.550;7.208;2023-02-21T06:02:47;101187.00;;;7.20
70831;BMP180;58451;51.550;7.208;2023-02-21T06:04:19;101181.60;;;7.20
70831;BMP180;58451;51.550;7.208;2023-02-21T06:05:51;101178.20;;;7.20
70831;BMP180;58451;51.550;7.208;2023-02-21T06:07:23;101180.60;;;7.20
70831;BMP180;58451;51.550;7.208;2023-02-21T06:08:55;101176.20;;;7.20
70831;BMP180;58451;51.550;7.208;2023-02-21T06:10:27;101173.60;;;7.24
70831;BMP180;58451;51.550;7.208;2023-02-21T06:11:58;101173.40;;;7.28
70831;BMP180;58451;51.550;7.208;2023-02-21T06:13:30;101176.00;;;7.30
70831;BMP180;58451;51.550;7.208;2023-02-21T06:15:04;101170.20;;;7.30
70831;BMP180;58451;51.550;7.208;2023-02-21T06:16:38;101171.80;;;7.26
70831;BMP180;58451;51.550;7.208;2023-02-21T06:18:15;101167.60;;;7.24
70831;BMP180;58451;51.550;7.208;2023-02-21T06:19:47;101165.40;;;7.24
70831;BMP180;58451;51.550;7.208;2023-02-21T06:21:19;101167.60;;;7.20
70831;BMP180;58451;51.550;7.208;2023-02-21T06:22:51;101167.60;;;7.20
70831;BMP180;58451;51.550;7.208;2023-02-21T06:24:23;101168.00;;;7.20
70831;BMP180;58451;51.550;7.208;2023-02-21T06:25:55;101167.60;;;7.20
70831;BMP180;58451;51.550;7.208;2023-02-21T06:27:27;101171.40;;;7.20
70831;BMP180;58451;51.550;7.208;2023-02-21T06:29:00;101166.60;;;7.20
70831;BMP180;58451;51.550;7.208;2023-02-21T06:30:31;101163.40;;;7.20
70831;BMP180;58451;51.550;7.208;2023-02-21T06:32:03;101166.40;;;7.20
70831;BMP180;58451;51.550;7.208;2023-02-21T06:33:36;101165.40;;;7.20
70831;BMP180;58451;51.550;7.208;2023-02-21T06:35:09;101163.00;;;7.20
70831;BMP180;58451;51.550;7.208;2023-02-21T06:36:40;101167.40;;;7.18
70831;BMP180;58451;51.550;7.208;2023-02-21T06:38:12;101167.00;;;7.10
70831;BMP180;58451;51.550;7.208;2023-02-21T06:39:45;101166.40;;;7.18
70831;BMP180;58451;51.550;7.208;2023-02-21T06:41:27;101171.40;;;7.10
70831;BMP180;58451;51.550;7.208;2023-02-21T06:42:59;101167.80;;;7.10
70831;BMP180;58451;51.550;7.208;2023-02-21T06:44:31;101171.20;;;7.10
70831;BMP180;58451;51.550;7.208;2023-02-21T06:46:03;101169.80;;;7.10
70831;BMP180;58451;51.550;7.208;2023-02-21T06:47:35;101167.60;;;7.10
70831;BMP180;58451;51.550;7.208;2023-02-21T06:49:08;101164.60;;;7.10
70831;BMP180;58451;51.550;7.208;2023-02-21T06:50:40;101176.00;;;7.10
70831;BMP180;58451;51.550;7.208;2023-02-21T06:52:14;101169.80;;;7.10
70831;BMP180;58451;51.550;7.208;2023-02-21T06:53:49;101178.20;;;7.10
70831;BMP180;58451;51.550;7.208;2023-02-21T06:55:22;101176.80;;;7.10
70831;BMP180;58451;51.550;7.208;2023-02-21T06:56:56;101170.80;;;7.10
70831;BMP180;58451;51.550;7.208;2023-02-21T06:58:28;101179.60;;;7.10
70831;BMP180;58451;51.550;7.208;2023-02-21T07:00:00;101180.60;;;7.10
70831;BMP180;58451;51.550;7.208;2023-02-21T07:01:32;101173.40;;;7.10
70831;BMP180;58451;51.550;7.208;2023-02-21T07:03:04;101179.20;;;7.10
70831;BMP180;58451;51.550;7.208;2023-02-21T07:04:36;101178.20;;;7.10
70831;BMP180;58451;51.550;7.208;2023-02-21T07:06:09;101177.40;;;7.10
70831;BMP180;58451;51.550;7.208;2023-02-21T07:07:41;101180.80;;;7.10
70831;BMP180;58451;51.550;7.208;2023-02-21T07:09:14;101173.20;;;7.10
70831;BMP180;58451;51.550;7.208;2023-02-21T07:10:46;101175.20;;;7.10
70831;BMP180;58451;51.550;7.208;2023-02-21T07:12:18;101182.80;;;7.10
70831;BMP180;58451;51.550;7.208;2023-02-21T07:13:53;101186.60;;;7.10
70831;BMP180;58451;51.550;7.208;2023-02-21T07:15:27;101181.20;;;7.10
70831;BMP180;58451;51.550;7.208;2023-02-21T07:16:59;101178.40;;;7.10
70831;BMP180;58451;51.550;7.208;2023-02-21T07:18:31;101178.40;;;7.10
70831;BMP180;58451;51.550;7.208;2023-02-21T07:20:04;101177.40;;;7.10
70831;BMP180;58451;51.550;7.208;2023-02-21T07:21:36;101179.20;;;7.10
70831;BMP180;58451;51.550;7.208;2023-02-21T07:23:11;101178.60;;;7.10
70831;BMP180;58451;51.550;7.208;2023-02-21T07:24:43;101178.00;;;7.10
70831;BMP180;58451;51.550;7.208;2023-02-21T07:26:15;101174.60;;;7.12
70831;BMP180;58451;51.550;7.208;2023-02-21T07:27:48;101176.40;;;7.14
70831;BMP180;58451;51.550;7.208;2023-02-21T07:29:20;101176.60;;;7.16
70831;BMP180;58451;51.550;7.208;2023-02-21T07:30:52;101177.00;;;7.20
70831;BMP180;58451;51.550;7.208;2023-02-21T07:32:24;101180.40;;;7.20
70831;BMP180;58451;51.550;7.208;2023-02-21T07:33:56;101177.80;;;7.20
70831;BMP180;58451;51.550;7.208;2023-02-21T07:35:29;101182.40;;;7.20
70831;BMP180;58451;51.550;7.208;2023-02-21T07:37:13;101185.60;;;7.20
70831;BMP180;58451;51.550;7.208;2023-02-21T07:38:49;101185.60;;;7.20
70831;BMP180;58451;51.550;7.208;2023-02-21T07:40:27;101187.80;;;7.20
70831;BMP180;58451;51.550;7.208;2023-02-21T07:42:00;101186.20;;;7.20
70831;BMP180;58451;51.550;7.208;2023-02-21T07:43:35;101189.20;;;7.20
70831;BMP180;58451;51.550;7.208;2023-02-21T07:45:15;101185.40;;;7.20
70831;BMP180;58451;51.550;7.208;2023-02-21T07:46:49;101192.80;;;7.30
70831;BMP180;58451;51.550;7.208;2023-02-21T07:48:25;101194.20;;;7.24
70831;BMP180;58451;51.550;7.208;2023-02-21T07:50:00;101193.60;;;7.28
70831;BMP180;58451;51.550;7.208;2023-02-21T07:51:33;101192.00;;;7.22
70831;BMP180;58451;51.550;7.208;2023-02-21T07:53:05;101194.00;;;7.30
70831;BMP180;58451;51.550;7.208;2023-02-21T07:54:37;101192.20;;;7.30
70831;BMP180;58451;51.550;7.208;2023-02-21T07:56:09;101192.00;;;7.30
70831;BMP180;58451;51.550;7.208;2023-02-21T07:57:44;101186.00;;;7.30
70831;BMP180;58451;51.550;7.208;2023-02-21T07:59:17;101190.40;;;7.30
70831;BMP180;58451;51.550;7.208;2023-02-21T08:00:49;101193.00;;;7.30
70831;BMP180;58451;51.550;7.208;2023-02-21T08:02:20;101192.20;;;7.30
70831;BMP180;58451;51.550;7.208;2023-02-21T08:03:53;101189.80;;;7.30
70831;BMP180;58451;51.550;7.208;2023-02-21T08:05:26;101187.00;;;7.30
70831;BMP180;58451;51.550;7.208;2023-02-21T08:07:00;101193.60;;;7.36
70831;BMP180;58451;51.550;7.208;2023-02-21T08:08:32;101195.20;;;7.40
70831;BMP180;58451;51.550;7.208;2023-02-21T08:10:04;101196.00;;;7.30
70831;BMP180;58451;51.550;7.208;2023-02-21T08:11:36;101196.20;;;7.30
70831;BMP180;58451;51.550;7.208;2023-02-21T08:13:08;101201.20;;;7.30
70831;BMP180;58451;51.550;7.208;2023-02-21T08:14:40;101197.60;;;7.20
70831;BMP180;58451;51.550;7.208;2023-02-21T08:16:13;101201.60;;;7.20
70831;BMP180;58451;51.550;7.208;2023-02-21T08:17:49;101205.40;;;7.20
70831;BMP180;58451;51.550;7.208;2023-02-21T08:19:21;101210.40;;;7.20
70831;BMP180;58451;51.550;7.208;2023-02-21T08:20:55;101207.20;;;7.20
70831;BMP180;58451;51.550;7.208;2023-02-21T08:22:30;101206.40;;;7.20
70831;BMP180;58451;51.550;7.208;2023-02-21T08:24:03;101208.00;;;7.20
70831;BMP180;58451;51.550;7.208;2023-02-21T08:25:35;101208.40;;;7.20
70831;BMP180;58451;51.550;7.208;2023-02-21T08:27:06;101205.60;;;7.20
70831;BMP180;58451;51.550;7.208;2023-02-21T08:28:38;101204.40;;;7.20
70831;BMP180;58451;51.550;7.208;2023-02-21T08:30:14;101210.80;;;7.20
70831;BMP180;58451;51.550;7.208;2023-02-21T08:31:48;101209.60;;;7.20
70831;BMP180;58451;51.550;7.208;2023-02-21T08:33:20;101205.60;;;7.20
70831;BMP180;58451;51.550;7.208;2023-02-21T08:34:53;101205.40;;;7.20
70831;BMP180;58451;51.550;7.208;2023-02-21T08:36:35;101209.00;;;7.20
70831;BMP180;58451;51.550;7.208;2023-02-21T08:38:07;101202.40;;;7.20
70831;BMP180;58451;51.550;7.208;2023-02-21T08:39:47;101205.60;;;7.12
70831;BMP180;58451;51.550;7.208;2023-02-21T08:41:23;101201.40;;;7.10
70831;BMP180;58451;51.550;7.208;2023-02-21T08:42:58;101199.80;;;7.10
70831;BMP180;58451;51.550;7.208;2023-02-21T08:44:30;101198.80;;;7.10
70831;BMP180;58451;51.550;7.208;2023-02-21T08:46:03;101197.40;;;7.14
70831;BMP180;58451;51.550;7.208;2023-02-21T08:47:35;101191.00;;;7.10
70831;BMP180;58451;51.550;7.208;2023-02-21T08:49:08;101192.20;;;7.20
70831;BMP180;58451;51.550;7.208;2023-02-21T08:50:40;101188.60;;;7.20
70831;BMP180;58451;51.550;7.208;2023-02-21T08:52:18;101189.00;;;7.20
70831;BMP180;58451;51.550;7.208;2023-02-21T08:53:50;101187.40;;;7.20
70831;BMP180;58451;51.550;7.208;2023-02-21T08:55:23;101179.60;;;7.22
70831;BMP180;58451;51.550;7.208;2023-02-21T08:56:55;101184.00;;;7.28
70831;BMP180;58451;51.550;7.208;2023-02-21T08:58:29;101184.40;;;7.24
70831;BMP180;58451;51.550;7.208;2023-02-21T09:00:01;101189.00;;;7.30
70831;BMP180;58451;51.550;7.208;2023-02-21T09:01:34;101194.40;;;7.26
70831;BMP180;58451;51.550;7.208;2023-02-21T09:03:06;101192.00;;;7.20
70831;BMP180;58451;51.550;7.208;2023-02-21T09:04:38;101189.00;;;7.20
70831;BMP180;58451;51.550;7.208;2023-02-21T09:06:10;101192.00;;;7.20
70831;BMP180;58451;51.550;7.208;2023-02-21T09:07:42;101190.80;;;7.20
70831;BMP180;58451;51.550;7.208;2023-02-21T09:09:14;101192.80;;;7.20
70831;BMP180;58451;51.550;7.208;2023-02-21T09:10:46;101194.80;;;7.10
70831;BMP180;58451;51.550;7.208;2023-02-21T09:12:19;101200.00;;;7.10
70831;BMP180;58451;51.550;7.208;2023-02-21T09:13:50;101195.20;;;7.10
70831;BMP180;58451;51.550;7.208;2023-02-21T09:15:26;101197.80;;;7.10
70831;BMP180;58451;51.550;7.208;2023-02-21T09:16:59;101198.80;;;7.10
70831;BMP180;58451;51.550;7.208;2023-02-21T09:18:31;101197.20;;;7.10
70831;BMP180;58451;51.550;7.208;2023-02-21T09:20:09;101196.00;;;7.12
70831;BMP180;58451;51.550;7.208;2023-02-21T09:21:45;101198.80;;;7.18
70831;BMP180;58451;51.550;7.208;2023-02-21T09:23:18;101197.20;;;7.10
70831;BMP180;58451;51.550;7.208;2023-02-21T09:24:50;101199.20;;;7.10
70831;BMP180;58451;51.550;7.208;2023-02-21T09:26:22;101199.60;;;7.10
70831;BMP180;58451;51.550;7.208;2023-02-21T09:27:55;101196.20;;;7.12
70831;BMP180;58451;51.550;7.208;2023-02-21T09:29:33;101199.40;;;7.10
70831;BMP180;58451;51.550;7.208;2023-02-21T09:31:18;101197.20;;;7.10
70831;BMP180;58451;51.550;7.208;2023-02-21T09:32:51;101198.40;;;7.10
70831;BMP180;58451;51.550;7.208;2023-02-21T09:34:23;101197.20;;;7.10
70831;BMP180;58451;51.550;7.208;2023-02-21T09:35:55;101196.60;;;7.14
70831;BMP180;58451;51.550;7.208;2023-02-21T09:37:27;101196.00;;;7.20
70831;BMP180;58451;51.550;7.208;2023-02-21T09:38:59;101195.60;;;7.18
70831;BMP180;58451;51.550;7.208;2023-02-21T09:42:16;101196.60;;;7.20
70831;BMP180;58451;51.550;7.208;2023-02-21T09:43:53;101193.60;;;7.20
70831;BMP180;58451;51.550;7.208;2023-02-21T09:45:31;101191.80;;;7.30
70831;BMP180;58451;51.550;7.208;2023-02-21T09:47:06;101186.00;;;7.30
70831;BMP180;58451;51.550;7.208;2023-02-21T09:48:40;101182.40;;;7.34
70831;BMP180;58451;51.550;7.208;2023-02-21T09:50:17;101186.20;;;7.40
70831;BMP180;58451;51.550;7.208;2023-02-21T09:51:51;101185.40;;;7.40
70831;BMP180;58451;51.550;7.208;2023-02-21T09:53:34;101185.40;;;7.42
70831;BMP180;58451;51.550;7.208;2023-02-21T09:56:47;101185.20;;;7.50
70831;BMP180;58451;51.550;7.208;2023-02-21T09:58:20;101186.20;;;7.48
70831;BMP180;58451;51.550;7.208;2023-02-21T09:59:52;101191.40;;;7.50
70831;BMP180;58451;51.550;7.208;2023-02-21T10:03:46;101181.60;;;7.60
70831;BMP180;58451;51.550;7.208;2023-02-21T10:05:37;101184.40;;;7.60